CheckWX is a tool to help pilots better visualize weather data.  It is not intended as a substitute for an official pre-flight weather briefing.

10:33:22 UTC

KDIK METAR
Dickinson - Theodore Roosevelt Regional Airport
Dickinson, North Dakota, USA
Current

37 mins ago

KDIK 220956Z AUTO 28008KT 10SM CLR 07/05 A2991 RMK AO2 SLP131 T00720050
Observed
Sep-22 @ 09:56 UTC
Wind
  • 280° at 8 KTS
Visibility
10 SM
Flight Rules
VFR
Cloud Levels
  • Clear skies
Temperature
C / 45°F
Dewpoint
C / 41°F
Humidity
87%
Altimeter
29.91" Hg
Pressure
1012.92 hPa
Previous

2 hours ago

KDIK 220856Z AUTO 26008KT 10SM CLR 08/06 A2990 RMK AO2 SLP129 T00780056 58002
Observed
Sep-22 @ 08:56 UTC
Wind
  • 260° at 8 KTS
Visibility
10 SM
Flight Rules
VFR
Cloud Levels
  • Clear skies
Temperature
C / 46°F
Dewpoint
C / 43°F
Humidity
87%
Altimeter
29.9" Hg
Pressure
1012.52 hPa
Previous

3 hours ago

KDIK 220756Z AUTO 26009KT 10SM CLR 08/06 A2991 RMK AO2 SLP132 T00780056
Observed
Sep-22 @ 07:56 UTC
Wind
  • 260° at 9 KTS
Visibility
10 SM
Flight Rules
VFR
Cloud Levels
  • Clear skies
Temperature
C / 46°F
Dewpoint
C / 43°F
Humidity
87%
Altimeter
29.91" Hg
Pressure
1012.92 hPa